createdAt,value
2022-08-29T00:00:18.588Z,102079.69
2022-08-29T00:01:21.481Z,102071.53
2022-08-29T00:02:24.952Z,102079.69
2022-08-29T00:03:28.739Z,102079.84
2022-08-29T00:04:31.801Z,102081.72
2022-08-29T00:05:36.816Z,102089.16
2022-08-29T00:06:39.031Z,102080.03
2022-08-29T00:07:40.901Z,102083.75
2022-08-29T00:08:42.790Z,102079.34
2022-08-29T00:09:44.696Z,102087.47
2022-08-29T00:10:47.227Z,102080.34
2022-08-29T00:11:49.064Z,102084.09
2022-08-29T00:12:51.072Z,102082.38
2022-08-29T00:13:53.096Z,102091.34
2022-08-29T00:14:54.934Z,102086.94
2022-08-29T00:15:56.687Z,102090.53
2022-08-29T00:16:58.776Z,102086.94
2022-08-29T00:18:01.010Z,102087.13
2022-08-29T00:19:02.830Z,102090.66
2022-08-29T00:20:06.863Z,102090.00
2022-08-29T00:21:08.669Z,102088.13
2022-08-29T00:22:10.691Z,102096.25
2022-08-29T00:23:12.859Z,102099.97
2022-08-29T00:24:14.716Z,102099.97
2022-08-29T00:25:17.144Z,102089.31
2022-08-29T00:26:18.911Z,102094.72
2022-08-29T00:27:20.658Z,102095.56
2022-08-29T00:28:22.875Z,102097.59
2022-08-29T00:29:24.623Z,102093.03
2022-08-29T00:30:26.721Z,102099.47
2022-08-29T00:31:29.024Z,102093.53
2022-08-29T00:32:35.199Z,102091.69
2022-08-29T00:33:38.289Z,102070.44
2022-08-29T00:34:41.230Z,102098.47
2022-08-29T00:35:44.777Z,102081.66
2022-08-29T00:36:49.239Z,102103.00
2022-08-29T00:37:52.322Z,102086.91
2022-08-29T00:38:54.410Z,102105.03
2022-08-29T00:39:56.371Z,102109.63
2022-08-29T00:40:58.843Z,102103.34
2022-08-29T00:42:00.659Z,102087.72
2022-08-29T00:43:03.348Z,102104.38
2022-08-29T00:44:05.770Z,102099.13
2022-08-29T00:45:11.184Z,102102.66
2022-08-29T00:46:19.054Z,102098.78
2022-08-29T00:47:26.672Z,102100.81
2022-08-29T00:48:29.002Z,102096.88
2022-08-29T00:49:33.986Z,102110.81
2022-08-29T00:50:40.927Z,102105.69
2022-08-29T00:51:43.326Z,102102.66
2022-08-29T00:52:48.219Z,102102.00
2022-08-29T00:54:00.883Z,102105.38
2022-08-29T00:55:06.735Z,102098.25
2022-08-29T00:56:10.519Z,102109.09
2022-08-29T00:57:12.979Z,102104.69
2022-08-29T00:58:21.434Z,102109.41
2022-08-29T00:59:36.910Z,102109.97
2022-08-29T01:00:39.112Z,102104.69
2022-08-29T01:01:40.943Z,102111.97
2022-08-29T01:02:43.587Z,102110.41
2022-08-29T01:03:45.943Z,102114.16
2022-08-29T01:04:47.931Z,102115.16
2022-08-29T01:05:49.836Z,102106.34
2022-08-29T01:06:52.987Z,102111.78
2022-08-29T01:07:55.283Z,102113.47
2022-08-29T01:08:57.845Z,102111.78
2022-08-29T01:10:00.315Z,102107.22
2022-08-29T01:11:35.930Z,102108.91
2022-08-29T01:12:37.946Z,102112.81
2022-08-29T01:13:43.411Z,102110.59
2022-08-29T01:14:55.473Z,102109.75
2022-08-29T01:15:59.371Z,102115.16
2022-08-29T01:17:04.094Z,102110.94
2022-08-29T01:18:08.851Z,102101.59
2022-08-29T01:19:31.699Z,102108.03
2022-08-29T01:20:40.418Z,102118.56
2022-08-29T01:21:47.531Z,102113.47
2022-08-29T01:23:07.558Z,102106.19
2022-08-29T01:24:43.874Z,102099.22
2022-08-29T01:25:48.894Z,102110.28
2022-08-29T01:26:51.002Z,102104.66
2022-08-29T01:28:05.279Z,102113.78
2022-08-29T01:29:07.280Z,102104.31
2022-08-29T01:30:09.927Z,102099.56
2022-08-29T01:31:37.534Z,102117.16
2022-08-29T01:32:39.878Z,102101.94
2022-08-29T01:33:48.417Z,102116.16
2022-08-29T01:34:50.222Z,102120.72
2022-08-29T01:35:52.614Z,102107.66
2022-08-29T01:37:03.811Z,102123.94
2022-08-29T01:38:05.663Z,102117.84
2022-08-29T01:39:08.083Z,102114.78
2022-08-29T01:40:11.707Z,102113.09
2022-08-29T01:41:14.695Z,102121.38
2022-08-29T01:42:23.655Z,102117.84
2022-08-29T01:43:27.187Z,102132.22
2022-08-29T01:44:29.062Z,102114.41
2022-08-29T01:45:30.986Z,102133.41
2022-08-29T01:46:34.709Z,102138.81
2022-08-29T01:47:38.840Z,102137.97
2022-08-29T01:48:43.304Z,102133.41
2022-08-29T01:49:45.386Z,102129.00
2022-08-29T01:50:48.016Z,102127.78
2022-08-29T01:51:50.672Z,102135.44
2022-08-29T01:52:52.403Z,102143.56
2022-08-29T01:53:54.394Z,102146.25
2022-08-29T01:54:56.643Z,102133.72
2022-08-29T01:55:58.514Z,102139.16
2022-08-29T01:57:01.802Z,102138.63
2022-08-29T01:58:04.147Z,102140.31
2022-08-29T01:59:10.959Z,102135.75
2022-08-29T02:00:13.186Z,102121.13
2022-08-29T02:01:18.997Z,102138.47
2022-08-29T02:02:28.837Z,102148.28
2022-08-29T02:03:30.788Z,102136.38
2022-08-29T02:04:32.876Z,102151.16
2022-08-29T02:05:35.216Z,102152.00
2022-08-29T02:06:37.589Z,102136.72
2022-08-29T02:07:39.690Z,102146.91
2022-08-29T02:08:43.566Z,102146.91
2022-08-29T02:09:46.535Z,102136.72
2022-08-29T02:10:48.346Z,102141.50
2022-08-29T02:11:50.246Z,102144.22
2022-08-29T02:12:53.980Z,102147.91
2022-08-29T02:13:58.552Z,102136.03
2022-08-29T02:15:00.548Z,102146.06
2022-08-29T02:16:02.742Z,102147.91
2022-08-29T02:17:07.243Z,102154.34
2022-08-29T02:18:09.047Z,102158.75
2022-08-29T02:19:10.866Z,102152.47
2022-08-29T02:20:12.764Z,102156.03
2022-08-29T02:21:17.570Z,102160.94
2022-08-29T02:22:22.266Z,102155.19
2022-08-29T02:23:30.902Z,102156.34
2022-08-29T02:24:33.625Z,102163.31
2022-08-29T02:25:46.690Z,102157.53
2022-08-29T02:26:48.451Z,102166.03
2022-08-29T02:27:52.395Z,102162.63
2022-08-29T02:28:54.310Z,102168.88
2022-08-29T02:29:56.615Z,102170.06
2022-08-29T02:30:59.107Z,102168.19
2022-08-29T02:32:00.915Z,102162.97
2022-08-29T02:33:03.549Z,102169.41
2022-08-29T02:34:08.853Z,102160.41
2022-08-29T02:35:14.091Z,102167.50
2022-08-29T02:36:18.301Z,102171.22
2022-08-29T02:37:21.549Z,102168.72
2022-08-29T02:38:23.630Z,102168.16
2022-08-29T02:39:26.592Z,102166.81
2022-08-29T02:40:31.856Z,102161.91
2022-08-29T02:41:34.459Z,102164.13
2022-08-29T02:42:36.421Z,102163.28
2022-08-29T02:43:38.248Z,102164.13
2022-08-29T02:44:40.223Z,102163.63
2022-08-29T02:45:42.195Z,102134.22
2022-08-29T02:46:44.067Z,102166.16
2022-08-29T02:47:46.451Z,102160.22
2022-08-29T02:48:52.271Z,102172.56
2022-08-29T02:50:09.851Z,102172.94
2022-08-29T02:51:20.192Z,102172.09
2022-08-29T02:52:21.922Z,102165.81
2022-08-29T02:53:27.119Z,102170.56
2022-08-29T02:54:28.957Z,102167.34
2022-08-29T02:55:31.475Z,102167.84
2022-08-29T02:56:33.387Z,102169.72
2022-08-29T02:57:35.236Z,102171.75
2022-08-29T02:58:36.987Z,102169.88
2022-08-29T02:59:38.726Z,102150.31
2022-08-29T03:00:40.858Z,102146.09
2022-08-29T03:01:42.855Z,102171.88
2022-08-29T03:02:47.347Z,102160.88
2022-08-29T03:03:50.517Z,102169.50
2022-08-29T03:04:52.364Z,102174.59
2022-08-29T03:05:55.301Z,102181.03
2022-08-29T03:06:57.785Z,102177.31
2022-08-29T03:07:59.651Z,102176.78
2022-08-29T03:09:01.518Z,102176.63
2022-08-29T03:10:04.526Z,102179.31
2022-08-29T03:11:06.719Z,102179.31
2022-08-29T03:12:08.862Z,102170.84
2022-08-29T03:13:11.934Z,102181.34
2022-08-29T03:14:13.915Z,102185.59
2022-08-29T03:15:18.403Z,102179.31
2022-08-29T03:16:20.362Z,102179.31
2022-08-29T03:17:22.267Z,102180.34
2022-08-29T03:18:24.075Z,102183.03
2022-08-29T03:19:26.523Z,102184.22
2022-08-29T03:20:28.306Z,102184.91
2022-08-29T03:21:30.416Z,102177.94
2022-08-29T03:22:33.275Z,102179.09
2022-08-29T03:23:35.290Z,102175.72
2022-08-29T03:24:37.815Z,102190.47
2022-08-29T03:25:39.654Z,102190.66
2022-08-29T03:26:41.406Z,102192.50
2022-08-29T03:27:43.530Z,102185.72
2022-08-29T03:28:45.347Z,102193.50
2022-08-29T03:29:47.231Z,102202.47
2022-08-29T03:30:49.005Z,102195.34
2022-08-29T03:31:50.892Z,102177.91
2022-08-29T03:32:52.981Z,102193.50
2022-08-29T03:33:54.754Z,102189.09
2022-08-29T03:34:56.639Z,102193.66
2022-08-29T03:35:58.421Z,102191.81
2022-08-29T03:37:00.230Z,102199.06
2022-08-29T03:38:02.002Z,102187.41
2022-08-29T03:39:04.100Z,102182.47
2022-08-29T03:40:08.025Z,102182.31
2022-08-29T03:41:10.022Z,102185.72
2022-08-29T03:42:12.060Z,102181.31
2022-08-29T03:43:13.852Z,102173.81
2022-08-29T03:44:15.675Z,102173.66
2022-08-29T03:45:19.559Z,102187.72
2022-08-29T03:46:22.545Z,102183.16
2022-08-29T03:47:24.610Z,102176.69
2022-08-29T03:48:26.379Z,102179.38
2022-08-29T03:49:28.338Z,102185.16
2022-08-29T03:50:30.255Z,102183.56
2022-08-29T03:51:31.997Z,102190.59
2022-08-29T03:52:33.935Z,102190.75
2022-08-29T03:53:35.718Z,102195.16
2022-08-29T03:54:38.595Z,102189.75
2022-08-29T03:55:40.491Z,102191.59
2022-08-29T03:56:42.278Z,102176.84
2022-08-29T03:57:45.266Z,102189.06
2022-08-29T03:58:53.230Z,102184.47
2022-08-29T03:59:56.559Z,102190.59
2022-08-29T04:00:58.959Z,102192.47
2022-08-29T04:02:00.853Z,102191.78
2022-08-29T04:03:02.977Z,102190.06
2022-08-29T04:04:05.392Z,102188.38
2022-08-29T04:05:08.467Z,102187.50
2022-08-29T04:06:11.675Z,102188.66
2022-08-29T04:07:14.896Z,102191.09
2022-08-29T04:08:16.657Z,102189.22
2022-08-29T04:09:18.686Z,102186.69
2022-08-29T04:10:31.062Z,102173.34
2022-08-29T04:11:32.838Z,102188.19
2022-08-29T04:12:34.627Z,102191.91
2022-08-29T04:13:36.539Z,102190.41
2022-08-29T04:14:39.385Z,102193.09
2022-08-29T04:15:42.604Z,102191.22
2022-08-29T04:16:48.539Z,102192.19
2022-08-29T04:17:55.366Z,102181.09
2022-08-29T04:18:57.791Z,102197.34
2022-08-29T04:19:59.931Z,102199.22
2022-08-29T04:21:03.145Z,102196.25
2022-08-29T04:22:06.079Z,102191.84
2022-08-29T04:23:08.063Z,102192.00
2022-08-29T04:24:09.823Z,102206.63
2022-08-29T04:25:14.691Z,102200.50
2022-08-29T04:26:35.814Z,102196.78
2022-08-29T04:27:38.550Z,102204.28
2022-08-29T04:28:40.847Z,102181.00
2022-08-29T04:29:43.723Z,102211.03
2022-08-29T04:30:51.663Z,102201.22
2022-08-29T04:31:54.500Z,102199.34
2022-08-29T04:32:56.910Z,102200.50
2022-08-29T04:33:58.675Z,102199.50
2022-08-29T04:35:00.642Z,102198.81
2022-08-29T04:36:06.182Z,102202.53
2022-08-29T04:37:07.914Z,102206.94
2022-08-29T04:38:09.700Z,102206.94
2022-08-29T04:39:12.463Z,102202.34
2022-08-29T04:40:18.675Z,102186.88
2022-08-29T04:41:21.387Z,102197.03
2022-08-29T04:42:23.383Z,102165.13
2022-08-29T04:43:25.109Z,102198.94
2022-08-29T04:44:26.955Z,102208.94
2022-08-29T04:45:29.206Z,102203.53
2022-08-29T04:46:31.629Z,102208.94
2022-08-29T04:47:36.588Z,102209.94
2022-08-29T04:48:38.439Z,102208.94
2022-08-29T04:49:40.383Z,102217.06
2022-08-29T04:50:42.133Z,102217.06
2022-08-29T04:51:44.039Z,102218.06
2022-08-29T04:52:46.107Z,102222.63
2022-08-29T04:53:48.358Z,102218.69
2022-08-29T04:54:50.355Z,102212.25
2022-08-29T04:56:06.570Z,102221.63
2022-08-29T04:57:08.831Z,102207.53
2022-08-29T04:58:12.991Z,102201.44
2022-08-29T04:59:15.887Z,102218.06
2022-08-29T05:00:21.626Z,102216.38
2022-08-29T05:01:26.862Z,102220.78
2022-08-29T05:02:29.139Z,102213.25
2022-08-29T05:03:32.627Z,102221.06
2022-08-29T05:04:34.503Z,102213.25
2022-08-29T05:05:36.750Z,102218.34
2022-08-29T05:06:38.503Z,102226.34
2022-08-29T05:07:40.682Z,102220.22
2022-08-29T05:08:43.994Z,102223.78
2022-08-29T05:09:45.756Z,102233.44
2022-08-29T05:10:47.891Z,102233.44
2022-08-29T05:11:49.914Z,102222.94
2022-08-29T05:12:51.699Z,102226.88
2022-08-29T05:13:54.059Z,102235.53
2022-08-29T05:14:56.104Z,102229.41
2022-08-29T05:15:58.031Z,102238.81
2022-08-29T05:16:59.999Z,102225.97
2022-08-29T05:18:01.746Z,102233.75
2022-08-29T05:19:05.648Z,102235.28
2022-08-29T05:20:08.586Z,102231.44
2022-08-29T05:21:11.002Z,102228.25
2022-08-29T05:22:17.366Z,102232.47
2022-08-29T05:23:19.298Z,102231.16
2022-08-29T05:24:21.012Z,102221.88
2022-08-29T05:25:23.005Z,102229.50
2022-08-29T05:26:31.631Z,102235.44
2022-08-29T05:27:33.834Z,102235.81
2022-08-29T05:28:36.763Z,102235.50
2022-08-29T05:29:43.700Z,102230.63
2022-08-29T05:30:45.492Z,102234.00
2022-08-29T05:31:49.603Z,102234.38
2022-08-29T05:32:52.298Z,102236.59
2022-08-29T05:33:55.150Z,102228.97
2022-08-29T05:34:57.736Z,102224.94
2022-08-29T05:35:59.487Z,102236.34
2022-08-29T05:37:03.113Z,102228.91
2022-08-29T05:38:14.755Z,102236.53
2022-08-29T05:39:16.611Z,102198.00
2022-08-29T05:40:18.615Z,102225.06
2022-08-29T05:41:20.455Z,102224.72
2022-08-29T05:42:22.893Z,102230.81
2022-08-29T05:43:24.876Z,102226.91
2022-08-29T05:44:34.199Z,102226.78
2022-08-29T05:45:38.026Z,102224.22
2022-08-29T05:46:40.094Z,102233.03
2022-08-29T05:47:41.947Z,102227.47
2022-08-29T05:48:43.746Z,102225.09
2022-08-29T05:49:46.547Z,102234.44
2022-08-29T05:50:48.304Z,102232.22
2022-08-29T05:51:53.306Z,102225.78
2022-08-29T05:52:55.160Z,102228.16
2022-08-29T05:53:56.890Z,102229.88
2022-08-29T05:54:58.732Z,102227.16
2022-08-29T05:56:00.622Z,102221.41
2022-08-29T05:57:02.743Z,102227.69
2022-08-29T05:58:04.502Z,102229.19
2022-08-29T05:59:06.479Z,102235.31
2022-08-29T06:00:09.749Z,102219.69
2022-08-29T06:01:25.918Z,102221.06
2022-08-29T06:02:28.604Z,102235.34
2022-08-29T06:03:31.451Z,102233.47
2022-08-29T06:04:33.643Z,102235.16
2022-08-29T06:05:35.453Z,102232.97
2022-08-29T06:06:37.355Z,102225.31
2022-08-29T06:07:39.260Z,102222.94
2022-08-29T06:08:41.052Z,102242.84
2022-08-29T06:09:46.228Z,102236.41
2022-08-29T06:10:48.288Z,102246.06
2022-08-29T06:11:53.323Z,102231.13
2022-08-29T06:12:55.486Z,102237.75
2022-08-29T06:13:58.415Z,102239.47
2022-08-29T06:15:00.259Z,102236.22
2022-08-29T06:16:02.285Z,102237.44
2022-08-29T06:17:05.918Z,102231.13
2022-08-29T06:18:09.929Z,102234.38
2022-08-29T06:19:12.752Z,102236.06
2022-08-29T06:20:15.115Z,102241.50
2022-08-29T06:21:17.798Z,102248.63
2022-08-29T06:22:22.391Z,102242.19
2022-08-29T06:23:24.247Z,102235.72
2022-08-29T06:24:31.334Z,102242.84
2022-08-29T06:25:39.377Z,102244.56
2022-08-29T06:26:44.202Z,102232.34
2022-08-29T06:27:45.979Z,102240.66
2022-08-29T06:28:48.546Z,102232.53
2022-08-29T06:29:50.342Z,102237.94
2022-08-29T06:30:52.092Z,102241.69
2022-08-29T06:31:56.611Z,102243.53
2022-08-29T06:32:58.839Z,102239.81
2022-08-29T06:34:02.814Z,102234.38
2022-08-29T06:35:05.499Z,102227.25
2022-08-29T06:36:08.500Z,102234.22
2022-08-29T06:37:10.459Z,102243.19
2022-08-29T06:38:14.210Z,102241.50
2022-08-29T06:39:16.197Z,102235.91
2022-08-29T06:40:18.015Z,102245.09
2022-08-29T06:41:19.849Z,102242.38
2022-08-29T06:42:25.161Z,102235.25
2022-08-29T06:43:30.343Z,102231.66
2022-08-29T06:44:32.165Z,102215.56
2022-08-29T06:45:40.417Z,102235.06
2022-08-29T06:46:46.208Z,102216.41
2022-08-29T06:47:48.087Z,102211.16
2022-08-29T06:48:50.654Z,102226.75
2022-08-29T06:49:52.738Z,102223.84
2022-08-29T06:50:54.637Z,102215.72
2022-08-29T06:51:58.356Z,102234.03
2022-08-29T06:53:26.148Z,102234.03
2022-08-29T06:54:24.030Z,102198.41
2022-08-29T06:55:25.900Z,102230.97
2022-08-29T06:56:28.395Z,102222.16
2022-08-29T06:57:31.600Z,102225.06
2022-08-29T06:58:34.222Z,102233.88
2022-08-29T06:59:36.063Z,102232.34
2022-08-29T07:00:41.212Z,102231.31
2022-08-29T07:01:44.329Z,102233.03
2022-08-29T07:02:52.457Z,102220.47
2022-08-29T07:03:57.291Z,102229.28
2022-08-29T07:04:59.030Z,102224.72
2022-08-29T07:06:01.219Z,102221.34
2022-08-29T07:07:03.157Z,102224.72
2022-08-29T07:08:05.338Z,102224.72
2022-08-29T07:09:08.252Z,102223.84
2022-08-29T07:10:12.611Z,102226.41
2022-08-29T07:11:14.335Z,102210.97
2022-08-29T07:12:16.258Z,102238.78
2022-08-29T07:13:18.072Z,102228.94
2022-08-29T07:14:19.878Z,102223.38
2022-08-29T07:15:23.393Z,102219.78
2022-08-29T07:16:26.273Z,102226.91
2022-08-29T07:17:31.350Z,102224.72
2022-08-29T07:18:33.158Z,102231.34
2022-08-29T07:19:35.043Z,102229.47
2022-08-29T07:20:40.115Z,102231.34
2022-08-29T07:21:42.051Z,102236.59
2022-08-29T07:22:45.507Z,102236.59
2022-08-29T07:23:47.492Z,102214.53
2022-08-29T07:24:49.290Z,102243.72
2022-08-29T07:25:51.044Z,102221.66
2022-08-29T07:26:52.898Z,102237.28
2022-08-29T07:27:54.663Z,102225.59
2022-08-29T07:29:00.719Z,102227.44
2022-08-29T07:30:06.510Z,102222.88
2022-08-29T07:31:09.784Z,102234.41
2022-08-29T07:32:11.850Z,102225.25
2022-08-29T07:33:13.700Z,102215.38
2022-08-29T07:34:20.244Z,102236.09
2022-08-29T07:35:30.135Z,102224.56
2022-08-29T07:36:34.430Z,102229.81
2022-08-29T07:37:36.525Z,102231.34
2022-08-29T07:38:39.651Z,102235.09
2022-08-29T07:39:41.479Z,102241.34
2022-08-29T07:40:43.383Z,102221.16
2022-08-29T07:41:46.174Z,102236.94
2022-08-29T07:42:48.008Z,102240.50
2022-08-29T07:43:50.567Z,102224.19
2022-08-29T07:44:52.419Z,102239.66
2022-08-29T07:45:55.193Z,102235.09
2022-08-29T07:46:59.214Z,102230.47
2022-08-29T07:48:01.071Z,102240.31
2022-08-29T07:49:03.739Z,102230.47
2022-08-29T07:50:08.595Z,102234.91
2022-08-29T07:51:16.775Z,102234.91
2022-08-29T07:52:18.978Z,102234.75
2022-08-29T07:53:20.768Z,102244.72
2022-08-29T07:54:23.251Z,102240.16
2022-08-29T07:55:25.117Z,102240.16
2022-08-29T07:56:32.440Z,102243.03
2022-08-29T07:57:40.028Z,102238.13
2022-08-29T07:58:42.811Z,102229.31
2022-08-29T07:59:45.015Z,102236.78
2022-08-29T08:00:47.019Z,102233.72
2022-08-29T08:01:49.315Z,102227.97
2022-08-29T08:02:51.539Z,102230.69
2022-08-29T08:03:53.882Z,102242.69
2022-08-29T08:04:55.815Z,102238.13
2022-08-29T08:05:57.759Z,102240.31
2022-08-29T08:06:59.567Z,102234.91
2022-08-29T08:08:05.244Z,102246.28
2022-08-29T08:09:11.778Z,102241.53
2022-08-29T08:10:13.703Z,102237.94
2022-08-29T08:11:18.427Z,102239.81
2022-08-29T08:12:20.170Z,102245.25
2022-08-29T08:13:21.987Z,102236.78
2022-08-29T08:14:23.924Z,102247.97
2022-08-29T08:15:39.338Z,102245.25
2022-08-29T08:16:44.125Z,102245.25
2022-08-29T08:17:46.638Z,102250.50
2022-08-29T08:18:49.417Z,102225.91
2022-08-29T08:19:51.211Z,102235.75
2022-08-29T08:20:53.394Z,102231.00
2022-08-29T08:21:55.207Z,102240.84
2022-08-29T08:22:57.415Z,102222.50
2022-08-29T08:23:59.441Z,102231.34
2022-08-29T08:25:01.727Z,102240.16
2022-08-29T08:26:04.169Z,102241.19
2022-08-29T08:27:06.128Z,102231.50
2022-08-29T08:28:08.012Z,102240.16
2022-08-29T08:29:12.542Z,102238.81
2022-08-29T08:30:14.905Z,102237.44
2022-08-29T08:31:17.710Z,102231.50
2022-08-29T08:32:19.943Z,102245.59
2022-08-29T08:33:21.752Z,102239.31
2022-08-29T08:34:23.848Z,102233.38
2022-08-29T08:35:25.776Z,102228.31
2022-08-29T08:36:31.088Z,102238.47
2022-08-29T08:37:32.953Z,102240.50
2022-08-29T08:38:34.788Z,102242.88
2022-08-29T08:39:37.673Z,102240.16
2022-08-29T08:41:04.374Z,102232.38
2022-08-29T08:42:24.812Z,102234.72
2022-08-29T08:43:51.821Z,102239.16
2022-08-29T08:45:14.562Z,102235.41
2022-08-29T08:46:18.201Z,102240.84
2022-08-29T08:47:33.296Z,102239.50
2022-08-29T08:48:40.086Z,102240.50
2022-08-29T08:49:50.280Z,102236.94
2022-08-29T08:50:59.777Z,102238.97
2022-08-29T08:52:10.464Z,102225.91
2022-08-29T08:53:21.791Z,102235.22
2022-08-29T08:54:26.118Z,102228.28
2022-08-29T08:55:47.954Z,102232.50
2022-08-29T08:57:00.048Z,102233.38
2022-08-29T08:58:18.283Z,102219.13
2022-08-29T08:59:33.220Z,102227.75
2022-08-29T09:00:43.777Z,102237.13
2022-08-29T09:02:06.532Z,102225.22
2022-08-29T09:03:25.893Z,102229.47
2022-08-29T09:04:52.987Z,102230.31
2022-08-29T09:06:07.901Z,102232.03
2022-08-29T09:07:39.407Z,102228.63
2022-08-29T09:09:12.151Z,102227.25
2022-08-29T09:10:37.388Z,102232.69
2022-08-29T09:11:54.687Z,102236.44
2022-08-29T09:13:06.648Z,102232.03
2022-08-29T09:14:24.414Z,102228.28
2022-08-29T09:15:33.983Z,102230.47
2022-08-29T09:16:49.275Z,102233.19
2022-08-29T09:18:01.273Z,102226.75
2022-08-29T09:19:06.347Z,102219.81
2022-08-29T09:20:14.086Z,102223.53
2022-08-29T09:21:40.070Z,102220.16
2022-08-29T09:22:45.554Z,102225.72
2022-08-29T09:23:53.932Z,102209.28
2022-08-29T09:25:04.082Z,102221.50
2022-08-29T09:26:06.679Z,102216.06
2022-08-29T09:27:22.218Z,102217.91
2022-08-29T09:28:24.566Z,102213.84
2022-08-29T09:29:30.519Z,102213.50
2022-08-29T09:30:37.042Z,102225.22
2022-08-29T09:31:38.897Z,102220.63
2022-08-29T09:33:07.776Z,102220.13
2022-08-29T09:34:50.581Z,102207.41
2022-08-29T09:35:56.002Z,102221.16
2022-08-29T09:36:57.785Z,102220.81
2022-08-29T09:38:07.207Z,102222.19
2022-08-29T09:39:31.376Z,102228.97
2022-08-29T09:40:55.574Z,102219.78
2022-08-29T09:42:12.334Z,102225.06
2022-08-29T09:43:31.839Z,102213.53
2022-08-29T09:44:35.502Z,102221.84
2022-08-29T09:45:37.403Z,102223.19
2022-08-29T09:46:39.250Z,102220.63
2022-08-29T09:47:41.070Z,102228.97
2022-08-29T09:48:49.279Z,102210.81
2022-08-29T09:50:20.224Z,102223.88
2022-08-29T09:51:24.648Z,102223.69
2022-08-29T09:52:27.135Z,102217.59
2022-08-29T09:53:29.239Z,102218.09
2022-08-29T09:54:31.970Z,102227.28
2022-08-29T09:55:40.341Z,102223.88
2022-08-29T09:57:08.431Z,102228.28
2022-08-29T09:58:12.933Z,102229.47
2022-08-29T09:59:37.365Z,102226.94
2022-08-29T10:00:59.406Z,102225.56
2022-08-29T10:02:17.225Z,102229.97
2022-08-29T10:03:23.617Z,102220.47
2022-08-29T10:04:40.618Z,102229.97
2022-08-29T10:05:46.275Z,102222.34
2022-08-29T10:06:52.534Z,102232.03
2022-08-29T10:07:55.539Z,102229.66
2022-08-29T10:09:23.995Z,102225.56
2022-08-29T10:10:30.814Z,102227.94
2022-08-29T10:11:32.636Z,102233.38
2022-08-29T10:12:52.088Z,102225.72
2022-08-29T10:14:02.986Z,102230.50
2022-08-29T10:15:10.520Z,102213.16
2022-08-29T10:16:34.218Z,102229.28
2022-08-29T10:18:02.669Z,102223.03
2022-08-29T10:19:26.660Z,102229.84
2022-08-29T10:21:05.712Z,102227.13
2022-08-29T10:22:39.040Z,102224.22
2022-08-29T10:24:15.984Z,102231.34
2022-08-29T10:25:23.638Z,102225.06
2022-08-29T10:26:37.594Z,102224.91
2022-08-29T10:27:57.770Z,102227.47
2022-08-29T10:29:06.963Z,102229.50
2022-08-29T10:30:16.425Z,102231.34
2022-08-29T10:31:46.125Z,102225.25
2022-08-29T10:32:50.887Z,102225.56
2022-08-29T10:34:05.282Z,102228.63
2022-08-29T10:35:21.942Z,102229.50
2022-08-29T10:36:34.051Z,102228.28
2022-08-29T10:37:49.210Z,102229.16
2022-08-29T10:39:08.907Z,102228.28
2022-08-29T10:40:38.220Z,102221.84
2022-08-29T10:41:58.603Z,102221.16
2022-08-29T10:43:27.383Z,102226.41
2022-08-29T10:44:59.939Z,102233.53
2022-08-29T10:46:37.442Z,102233.53
2022-08-29T10:47:45.225Z,102196.38
2022-08-29T10:49:17.943Z,102229.28
2022-08-29T10:50:45.793Z,102226.25
2022-08-29T10:52:23.706Z,102231.34
2022-08-29T10:53:40.267Z,102222.00
2022-08-29T10:54:50.834Z,102239.84
2022-08-29T10:56:01.046Z,102234.72
2022-08-29T10:57:09.221Z,102233.91
2022-08-29T10:58:29.017Z,102240.16
2022-08-29T10:59:30.818Z,102232.00
2022-08-29T11:00:51.834Z,102230.50
2022-08-29T11:02:08.702Z,102231.03
2022-08-29T11:03:23.010Z,102236.47
2022-08-29T11:04:34.614Z,102233.03
2022-08-29T11:05:43.452Z,102224.22
2022-08-29T11:07:32.872Z,102231.34
2022-08-29T11:08:44.528Z,102231.50
2022-08-29T11:10:11.565Z,102227.78
2022-08-29T11:11:19.840Z,102228.13
2022-08-29T11:12:41.735Z,102231.84
2022-08-29T11:13:49.470Z,102236.47
2022-08-29T11:15:07.476Z,102225.22
2022-08-29T11:16:22.613Z,102229.63
2022-08-29T11:17:29.799Z,102226.94
2022-08-29T11:19:00.516Z,102238.16
2022-08-29T11:20:11.746Z,102235.44
2022-08-29T11:21:26.803Z,102231.19
2022-08-29T11:22:42.522Z,102232.88
2022-08-29T11:23:47.172Z,102215.38
2022-08-29T11:25:00.471Z,102233.22
2022-08-29T11:26:27.546Z,102232.19
2022-08-29T11:27:41.812Z,102227.09
2022-08-29T11:29:21.687Z,102235.25
2022-08-29T11:30:33.442Z,102222.34
2022-08-29T11:31:46.322Z,102230.69
2022-08-29T11:32:56.919Z,102227.28
2022-08-29T11:34:06.966Z,102218.44
2022-08-29T11:35:21.355Z,102222.16
2022-08-29T11:36:38.671Z,102221.00
2022-08-29T11:38:03.807Z,102229.47
2022-08-29T11:39:34.498Z,102220.84
2022-08-29T11:42:50.666Z,102228.28
2022-08-29T11:43:57.759Z,102214.72
2022-08-29T11:45:01.421Z,102220.84
2022-08-29T11:46:08.154Z,102217.28
2022-08-29T11:47:57.495Z,102236.25
2022-08-29T11:49:21.687Z,102228.28
2022-08-29T11:50:44.601Z,102236.44
2022-08-29T11:51:52.627Z,102235.25
2022-08-29T11:53:06.186Z,102228.13
2022-08-29T11:54:26.707Z,102232.38
2022-08-29T11:55:40.185Z,102224.22
2022-08-29T11:56:42.104Z,102224.56
2022-08-29T11:57:49.741Z,102233.22
2022-08-29T11:58:54.423Z,102234.25
2022-08-29T11:59:58.772Z,102233.03
2022-08-29T12:01:00.704Z,102237.97
2022-08-29T12:02:02.528Z,102241.72
2022-08-29T12:03:29.013Z,102239.16
2022-08-29T12:04:54.821Z,102243.41
2022-08-29T12:06:02.613Z,102225.41
2022-08-29T12:07:04.917Z,102234.72
2022-08-29T12:08:36.844Z,102236.78
2022-08-29T12:09:48.303Z,102238.97
2022-08-29T12:10:56.254Z,102241.88
2022-08-29T12:12:12.935Z,102239.31
2022-08-29T12:13:43.711Z,102235.09
2022-08-29T12:14:52.673Z,102229.28
2022-08-29T12:16:08.579Z,102235.25
2022-08-29T12:18:00.901Z,102238.47
2022-08-29T12:19:03.691Z,102244.41
2022-08-29T12:20:15.991Z,102244.06
2022-08-29T12:21:44.346Z,102242.03
2022-08-29T12:22:52.320Z,102241.19
2022-08-29T12:23:54.222Z,102245.97
2022-08-29T12:24:57.870Z,102242.72
2022-08-29T12:26:21.580Z,102246.63
2022-08-29T12:28:02.947Z,102239.31
2022-08-29T12:29:10.207Z,102247.31
2022-08-29T12:30:14.566Z,102238.63
2022-08-29T12:31:25.387Z,102245.28
2022-08-29T12:32:40.066Z,102227.94
2022-08-29T12:33:42.058Z,102238.81
2022-08-29T12:35:14.508Z,102206.22
2022-08-29T12:36:19.375Z,102246.78
2022-08-29T12:37:28.694Z,102255.28
2022-08-29T12:38:56.939Z,102235.06
2022-08-29T12:40:05.426Z,102244.06
2022-08-29T12:41:22.434Z,102229.81
2022-08-29T12:42:39.020Z,102235.25
2022-08-29T12:43:44.744Z,102242.56
2022-08-29T12:44:50.891Z,102240.69
2022-08-29T12:45:54.105Z,102241.19